Flugplatz Fassberg Airport

Bericht für ETHS

vom 17.09. um 13:30 UTC

Wind 16 kt aus 330°

Sichtweite 5000 m

Regenschauer

aufgebrochene Bewölkung in 4000 ft

Temperatur 12.0°C

Taupunkt 7.0°C

Luftfeuchtigkeit 71%

Luftdruck 1015 hPa

ETHS 171330Z 33016KT 5000 SHRA BKN040CB 12/07 Q1015 WHT BLU TEMPO WHT

Prognose für ETHS

vom 17.09. um 00:00 UTC

Zwischen 00:00 UTC und 00:00 UTC

Wind 15 kt aus 280°

Sichtweite 10 km oder mehr

keine signifikanten Wettererscheinungen

aufgelockert bewölkt in 2500 ft

aufgebrochene Bewölkung in 5000 ft


Zwischen 00:00 UTC und 00:00 UTC zeitweise

Wind 20 kt aus 300° in Böen 40 kt

Sichtweite 5000 m

Regenschauer

aufgelockert bewölkt in 1500 ft

aufgebrochene Bewölkung in 2500 ft

TAF ETHS 171319Z 1714/1720 28015KT 9999 NSW SCT025 BKN050 TEMPO 1714/1718 30020G40KT 5000 SHRA SCT015 BKN025TCU
Impressum